Time;durP1;ratioP1;P1;durP2;ratioP2;P2;SDS_P1;SDS_P2;PMS_P1;PMS_P2;Temp;Humidity;BMP_temperature;BMP_pressure;BME280_temperature;BME280_humidity;BME280_pressure;Samples;Min_cycle;Max_cycle;Signal;HPM_P1;HPM_P2
2021/11/04 00:00:39;;;;;;;88.22;36.85;;;;;;;5.86;98.19;100089.91;4976982;28;20054;-81
2021/11/04 00:03:05;;;;;;;107.18;38.72;;;;;;;5.82;98.57;100086.81;4963922;28;20045;-78
2021/11/04 00:05:31;;;;;;;108.15;39.22;;;;;;;5.89;98.58;100094.75;4980679;28;20026;-81
2021/11/04 00:08:02;;;;;;;111.13;40.17;;;;;;;5.84;98.36;100095.19;4979163;28;20030;-80
2021/11/04 00:10:28;;;;;;;112.78;42.47;;;;;;;5.79;98.53;100097.38;4977978;28;20041;-81
2021/11/04 00:12:53;;;;;;;108.95;41.78;;;;;;;5.77;99.04;100094.13;4993573;28;20114;-80
2021/11/04 00:15:19;;;;;;;112.20;40.33;;;;;;;5.84;98.89;100089.25;4990373;28;20196;-79
2021/11/04 00:17:44;;;;;;;115.10;40.47;;;;;;;5.81;98.54;100089.50;4988016;28;20034;-81
2021/11/04 00:20:11;;;;;;;108.80;39.30;;;;;;;5.85;97.90;100088.25;4988069;28;20026;-79
2021/11/04 00:22:37;;;;;;;105.43;39.53;;;;;;;5.73;98.02;100082.50;4981331;28;20564;-79
2021/11/04 00:25:03;;;;;;;102.05;41.13;;;;;;;5.69;98.20;100088.88;4966270;28;20026;-80
2021/11/04 00:27:29;;;;;;;100.20;38.30;;;;;;;5.67;98.26;100075.34;4979770;28;20133;-79
2021/11/04 00:29:55;;;;;;;108.28;40.58;;;;;;;5.68;98.12;100079.53;4987018;28;20486;-80
2021/11/04 00:32:20;;;;;;;112.30;40.65;;;;;;;5.65;98.26;100069.53;4987071;28;20035;-80
2021/11/04 00:34:46;;;;;;;115.15;42.05;;;;;;;5.68;97.94;100069.25;4971439;28;20323;-79
2021/11/04 00:37:11;;;;;;;101.30;41.67;;;;;;;5.77;98.05;100075.31;4967027;28;20034;-80
2021/11/04 00:39:38;;;;;;;110.95;40.13;;;;;;;5.83;97.75;100070.41;4985664;28;20040;-81
2021/11/04 00:42:03;;;;;;;104.05;38.03;;;;;;;5.83;96.95;100077.31;4976227;28;20026;-76
2021/11/04 00:44:29;;;;;;;103.32;39.08;;;;;;;5.73;96.95;100069.63;4981981;28;20043;-78
2021/11/04 00:46:54;;;;;;;97.93;36.38;;;;;;;5.72;97.07;100062.84;4986344;28;20376;-80
2021/11/04 00:49:20;;;;;;;94.65;35.03;;;;;;;5.73;97.00;100063.69;4963989;28;20029;-78
2021/11/04 00:51:46;;;;;;;91.18;35.35;;;;;;;5.65;97.48;100067.78;4985602;28;20049;-80
2021/11/04 00:54:11;;;;;;;103.65;36.92;;;;;;;5.61;97.33;100065.63;4996670;28;20482;-78
2021/11/04 00:56:37;;;;;;;99.85;37.15;;;;;;;5.55;97.27;100069.56;4968009;28;20030;-80
2021/11/04 00:59:03;;;;;;;95.10;37.42;;;;;;;5.49;97.40;100066.75;4967985;28;20737;-80
2021/11/04 01:01:28;;;;;;;101.95;36.88;;;;;;;5.45;97.33;100066.22;4986834;28;20233;-79
2021/11/04 01:03:54;;;;;;;106.05;39.20;;;;;;;5.48;97.85;100068.50;4986124;28;20061;-79
2021/11/04 01:06:22;;;;;;;98.57;36.53;;;;;;;5.47;98.16;100069.47;4987243;28;20034;-81
2021/11/04 01:08:49;;;;;;;105.57;38.20;;;;;;;5.50;98.63;100071.75;4985360;28;20045;-80
2021/11/04 01:11:16;;;;;;;112.95;38.53;;;;;;;5.45;98.17;100074.75;4979417;28;20039;-80
2021/11/04 01:13:43;;;;;;;112.38;37.83;;;;;;;5.47;98.59;100074.59;4979714;28;20043;-78
2021/11/04 01:16:09;;;;;;;114.68;38.50;;;;;;;5.53;98.64;100081.75;4975336;28;20026;-78
2021/11/04 01:18:34;;;;;;;107.90;37.63;;;;;;;5.48;98.35;100078.78;4974947;28;20045;-79
2021/11/04 01:21:01;;;;;;;110.55;38.95;;;;;;;5.53;98.22;100075.81;4966224;28;20030;-80
2021/11/04 01:23:26;;;;;;;112.70;39.65;;;;;;;5.47;97.76;100072.03;4976260;28;20030;-80
2021/11/04 01:25:52;;;;;;;117.75;40.28;;;;;;;5.57;97.74;100079.72;4972595;28;20045;-80
2021/11/04 01:28:18;;;;;;;116.72;39.63;;;;;;;5.60;97.28;100075.09;4975162;28;20281;-77
2021/11/04 01:30:44;;;;;;;118.45;41.03;;;;;;;5.59;97.38;100070.09;4978273;28;20035;-78
2021/11/04 01:33:10;;;;;;;108.78;38.45;;;;;;;5.53;97.02;100073.25;4979902;28;20440;-79
2021/11/04 01:35:36;;;;;;;115.57;38.10;;;;;;;5.56;96.92;100072.97;4976050;28;20034;-79
2021/11/04 01:38:04;;;;;;;127.18;40.75;;;;;;;5.41;97.20;100081.13;5052482;28;20498;-79
2021/11/04 01:40:31;;;;;;;122.57;39.60;;;;;;;5.43;97.98;100091.28;4977249;28;20030;-79
2021/11/04 01:42:57;;;;;;;124.57;39.40;;;;;;;5.42;98.24;100100.72;4971864;28;20049;-79
2021/11/04 01:45:23;;;;;;;123.05;41.35;;;;;;;5.37;98.01;100097.78;4983510;28;20038;-78
2021/11/04 01:47:50;;;;;;;121.18;40.17;;;;;;;5.38;98.33;100099.38;5048775;28;20049;-81
2021/11/04 01:50:18;;;;;;;132.57;41.30;;;;;;;5.41;98.39;100111.97;4977256;28;20034;-79
2021/11/04 01:52:45;;;;;;;136.93;44.03;;;;;;;5.46;98.42;100108.97;4978137;28;20034;-79
2021/11/04 01:55:20;;;;;;;124.63;41.03;;;;;;;5.54;97.75;100106.53;4996749;28;20475;-79
2021/11/04 01:57:46;;;;;;;120.07;40.88;;;;;;;5.46;97.34;100119.25;4981290;28;20069;-80
2021/11/04 02:00:13;;;;;;;113.50;39.63;;;;;;;5.37;97.36;100118.34;4961616;28;20058;-79
2021/11/04 02:02:45;;;;;;;132.88;40.97;;;;;;;5.37;98.05;100123.50;4966933;28;20046;-80
2021/11/04 02:05:16;;;;;;;145.93;44.33;;;;;;;5.43;97.96;100120.38;4962804;28;20501;-77
2021/11/04 02:08:01;;;;;;;122.63;40.63;;;;;;;5.47;97.67;100124.28;4979634;28;20035;-79
2021/11/04 02:10:47;;;;;;;117.72;39.15;;;;;;;5.30;97.47;100116.47;4981285;28;20553;-79
2021/11/04 02:13:23;;;;;;;126.60;40.92;;;;;;;5.31;97.49;100111.16;4973966;28;20077;-81
2021/11/04 02:15:54;;;;;;;114.38;38.08;;;;;;;5.21;97.79;100108.63;4980987;28;20451;-79
2021/11/04 02:18:22;;;;;;;127.18;40.20;;;;;;;5.28;97.99;100097.81;4980602;28;20062;-82
2021/11/04 02:20:54;;;;;;;124.47;40.20;;;;;;;5.25;97.67;100093.75;4983797;28;20553;-81
2021/11/04 02:23:35;;;;;;;123.28;38.90;;;;;;;5.23;97.78;100083.59;4982449;28;20045;-79
2021/11/04 02:26:03;;;;;;;125.97;39.10;;;;;;;5.20;97.98;100083.09;4966495;28;20479;-81
2021/11/04 02:28:29;;;;;;;124.07;38.63;;;;;;;5.16;98.16;100082.53;5002504;28;20082;-79
2021/11/04 02:30:55;;;;;;;120.60;38.83;;;;;;;5.11;98.44;100082.13;4967583;28;20030;-79
2021/11/04 02:33:25;;;;;;;119.70;39.13;;;;;;;5.17;98.46;100083.34;4969116;28;20038;-79
2021/11/04 02:35:53;;;;;;;144.43;41.15;;;;;;;5.20;98.35;100072.78;4977266;28;20038;-80
2021/11/04 02:38:21;;;;;;;128.55;40.95;;;;;;;5.32;98.01;100076.81;4965236;28;20094;-78
2021/11/04 02:40:47;;;;;;;110.07;37.05;;;;;;;5.27;97.57;100076.41;4986036;28;20050;-78
2021/11/04 02:43:15;;;;;;;98.20;37.78;;;;;;;5.34;97.17;100077.47;4984230;28;20091;-78
2021/11/04 02:45:41;;;;;;;110.97;38.05;;;;;;;5.20;97.02;100089.03;4964127;28;20479;-78
2021/11/04 02:48:07;;;;;;;116.72;39.50;;;;;;;5.24;97.62;100084.41;4964403;28;20415;-75
2021/11/04 02:50:33;;;;;;;104.35;38.15;;;;;;;5.18;97.38;100097.81;4977240;28;20129;-79
2021/11/04 02:52:59;;;;;;;102.40;38.70;;;;;;;5.18;97.71;100103.78;4970518;28;20117;-78
2021/11/04 02:55:35;;;;;;;109.82;38.70;;;;;;;5.22;96.68;100105.13;4979178;28;20041;-78
2021/11/04 02:58:07;;;;;;;104.28;38.63;;;;;;;5.16;97.19;100113.38;4982331;28;20472;-79
2021/11/04 03:00:35;;;;;;;103.07;36.80;;;;;;;5.11;97.67;100125.03;4998994;28;20125;-79
2021/11/04 03:03:01;;;;;;;105.32;37.80;;;;;;;5.15;97.50;100128.94;4987097;28;20026;-79
2021/11/04 03:05:27;;;;;;;102.90;37.33;;;;;;;5.16;97.95;100121.09;4978024;28;20038;-78
2021/11/04 03:07:52;;;;;;;108.50;37.60;;;;;;;5.15;98.08;100121.22;4968064;28;20045;-80
2021/11/04 03:10:22;;;;;;;101.50;38.15;;;;;;;5.18;97.71;100124.34;4972433;28;20029;-79
2021/11/04 03:12:47;;;;;;;108.30;39.78;;;;;;;5.10;97.98;100125.97;5012451;28;20042;-78
2021/11/04 03:15:17;;;;;;;106.95;39.88;;;;;;;5.12;98.44;100124.88;4986502;28;20022;-78
2021/11/04 03:17:43;;;;;;;106.32;38.20;;;;;;;5.14;98.17;100122.16;4987527;28;20106;-80
2021/11/04 03:20:10;;;;;;;111.43;38.63;;;;;;;5.17;98.11;100114.19;4968339;28;20050;-79
2021/11/04 03:22:37;;;;;;;105.63;38.55;;;;;;;5.15;98.45;100114.31;4984587;28;20022;-79
2021/11/04 03:25:04;;;;;;;110.43;38.65;;;;;;;5.11;97.93;100119.88;4966665;28;20027;-80
2021/11/04 03:27:32;;;;;;;109.97;39.80;;;;;;;5.09;98.35;100117.44;5054428;28;20057;-76
2021/11/04 03:30:00;;;;;;;112.00;40.25;;;;;;;5.14;98.66;100123.00;4978622;28;20034;-79
2021/11/04 03:32:26;;;;;;;112.22;38.30;;;;;;;5.14;99.02;100123.00;4983257;28;20049;-79
2021/11/04 03:34:53;;;;;;;114.78;39.70;;;;;;;5.14;98.54;100125.56;4986278;28;20640;-80
2021/11/04 03:37:20;;;;;;;117.70;39.90;;;;;;;5.15;98.51;100126.38;4968166;28;20039;-78
2021/11/04 03:39:46;;;;;;;129.23;41.33;;;;;;;5.25;98.26;100120.28;4982256;28;20039;-80
2021/11/04 03:42:14;;;;;;;130.50;43.17;;;;;;;5.19;97.75;100120.81;4983721;28;20039;-80
2021/11/04 03:44:40;;;;;;;131.32;40.45;;;;;;;5.15;97.40;100114.31;4977077;28;20268;-80
2021/11/04 03:47:08;;;;;;;124.93;39.67;;;;;;;5.08;97.62;100113.25;4982292;28;20502;-78
2021/11/04 03:49:34;;;;;;;130.60;42.47;;;;;;;5.12;97.91;100113.78;4971926;28;20049;-79
2021/11/04 03:52:00;;;;;;;130.13;40.58;;;;;;;5.19;97.79;100120.00;4976381;28;20556;-79
2021/11/04 03:54:27;;;;;;;124.43;38.22;;;;;;;5.09;97.89;100119.22;4979289;28;20096;-78
2021/11/04 03:56:53;;;;;;;130.10;41.22;;;;;;;5.12;98.12;100113.78;4969930;28;20056;-79
2021/11/04 03:59:20;;;;;;;128.02;43.00;;;;;;;5.15;97.70;100121.22;4987938;28;20045;-81
2021/11/04 04:01:46;;;;;;;131.20;42.60;;;;;;;5.06;97.81;100113.38;4988637;28;20030;-79
2021/11/04 04:04:12;;;;;;;131.45;42.45;;;;;;;5.11;98.20;100119.88;4963358;28;20394;-79
2021/11/04 04:06:37;;;;;;;138.40;44.97;;;;;;;5.18;97.88;100108.91;4985881;28;20079;-79
2021/11/04 04:09:06;;;;;;;146.98;44.30;;;;;;;5.17;97.57;100112.41;4982765;28;20071;-78
2021/11/04 04:11:32;;;;;;;115.93;38.47;;;;;;;5.04;97.77;100110.13;4977117;28;20034;-78
2021/11/04 04:13:58;;;;;;;131.43;42.50;;;;;;;5.10;98.25;100121.63;4992375;28;20041;-78
2021/11/04 04:16:24;;;;;;;133.88;42.05;;;;;;;5.01;98.34;100117.31;4991241;28;20269;-78
2021/11/04 04:18:50;;;;;;;131.52;42.83;;;;;;;5.01;98.59;100122.44;4991474;28;20046;-78
2021/11/04 04:21:16;;;;;;;121.43;41.10;;;;;;;5.00;98.78;100126.78;4985214;28;20037;-79
2021/11/04 04:23:42;;;;;;;133.07;41.88;;;;;;;5.01;99.01;100122.44;4984137;28;20475;-78
2021/11/04 04:26:08;;;;;;;127.93;42.85;;;;;;;5.01;98.98;100125.84;4985489;28;20053;-77
2021/11/04 04:28:34;;;;;;;122.45;43.50;;;;;;;5.02;99.13;100136.91;4963155;28;20039;-78
2021/11/04 04:30:59;;;;;;;117.30;41.17;;;;;;;4.97;98.94;100136.50;4980254;28;20035;-78
2021/11/04 04:33:25;;;;;;;108.03;38.55;;;;;;;5.00;99.27;100138.81;4982859;28;20030;-79
2021/11/04 04:35:51;;;;;;;105.43;39.58;;;;;;;5.02;99.01;100142.06;4971948;28;20347;-78
2021/11/04 04:38:18;;;;;;;103.55;38.58;;;;;;;5.07;98.33;100147.63;4988371;28;20427;-78
2021/11/04 04:40:44;;;;;;;100.65;35.45;;;;;;;5.03;98.88;100143.69;4987443;28;20039;-78
2021/11/04 04:43:09;;;;;;;107.45;39.45;;;;;;;5.03;98.63;100156.53;4984387;28;20053;-78
2021/11/04 04:45:35;;;;;;;108.38;38.20;;;;;;;5.01;98.84;100166.97;4971902;28;20042;-78
2021/11/04 04:48:00;;;;;;;105.57;39.72;;;;;;;5.05;98.50;100164.94;4983818;28;20046;-76
2021/11/04 04:50:26;;;;;;;100.78;37.72;;;;;;;5.01;98.98;100172.09;4979206;28;20095;-79
2021/11/04 04:52:51;;;;;;;108.20;39.28;;;;;;;5.08;99.23;100174.91;4970164;28;20031;-79
2021/11/04 04:55:17;;;;;;;97.75;36.72;;;;;;;5.05;98.94;100185.50;4966788;28;20440;-78
2021/11/04 04:57:42;;;;;;;104.63;36.35;;;;;;;5.04;99.19;100189.00;4984243;28;20546;-77
2021/11/04 05:00:11;;;;;;;97.18;38.55;;;;;;;5.06;99.36;100199.94;4976663;28;20043;-78
2021/11/04 05:02:38;;;;;;;99.03;36.70;;;;;;;5.07;99.60;100199.00;4966239;28;20054;-77
2021/11/04 05:05:04;;;;;;;98.22;37.20;;;;;;;5.06;99.11;100187.91;4961961;28;20061;-78
2021/11/04 05:07:30;;;;;;;102.38;35.42;;;;;;;5.09;99.08;100189.41;4962106;28;20042;-78
2021/11/04 05:09:55;;;;;;;101.25;38.78;;;;;;;5.08;99.62;100192.91;4984167;28;20041;-78
2021/11/04 05:12:21;;;;;;;100.05;37.97;;;;;;;5.09;99.65;100197.13;4982508;28;20042;-77
2021/11/04 05:14:46;;;;;;;114.30;42.58;;;;;;;5.10;99.79;100196.16;4986557;28;20026;-78
2021/11/04 05:17:12;;;;;;;95.13;38.00;;;;;;;5.09;99.81;100197.13;4982007;28;20042;-78
2021/11/04 05:19:37;;;;;;;100.63;38.90;;;;;;;5.07;99.33;100192.09;4976985;28;20392;-77
2021/11/04 05:22:03;;;;;;;108.13;39.17;;;;;;;5.06;99.36;100194.81;4978008;28;20034;-78
2021/11/04 05:24:34;;;;;;;102.85;38.05;;;;;;;5.07;99.56;100199.00;4958976;28;20557;-78
2021/11/04 05:27:03;;;;;;;98.07;36.78;;;;;;;5.07;99.83;100194.69;4971119;28;20280;-78
2021/11/04 05:29:30;;;;;;;94.30;36.53;;;;;;;5.07;99.98;100206.72;4984250;28;20475;-77
2021/11/04 05:31:57;;;;;;;94.57;36.10;;;;;;;5.09;100.00;100212.53;4983608;28;20026;-77
2021/11/04 05:34:22;;;;;;;100.30;38.33;;;;;;;5.09;99.93;100207.41;4978509;28;20035;-79
2021/11/04 05:36:48;;;;;;;106.88;38.03;;;;;;;5.10;99.68;100209.00;4964136;28;20031;-78
2021/11/04 05:39:13;;;;;;;104.20;39.28;;;;;;;5.10;100.00;100213.34;4997561;28;20031;-79
2021/11/04 05:41:39;;;;;;;101.65;37.30;;;;;;;5.18;99.76;100214.31;4956274;28;20695;-78
2021/11/04 05:44:04;;;;;;;100.32;37.83;;;;;;;5.14;99.17;100215.53;4990433;28;20030;-77
2021/11/04 05:46:30;;;;;;;97.05;35.63;;;;;;;5.12;99.47;100212.25;4970456;28;20114;-78
2021/11/04 05:48:55;;;;;;;104.38;38.28;;;;;;;5.11;99.56;100215.78;4966470;28;20517;-78
2021/11/04 05:51:21;;;;;;;95.50;37.05;;;;;;;5.12;99.40;100214.03;4975556;28;20035;-78
2021/11/04 05:53:46;;;;;;;103.32;37.13;;;;;;;5.10;99.23;100213.34;4979764;28;20039;-79
2021/11/04 05:56:11;;;;;;;109.57;38.08;;;;;;;5.06;99.11;100215.38;4980615;28;20095;-78
2021/11/04 05:58:37;;;;;;;104.10;35.67;;;;;;;5.05;99.01;100217.13;4984982;28;20057;-79
2021/11/04 06:01:04;;;;;;;91.22;35.28;;;;;;;5.06;99.06;100218.75;4970520;28;20072;-78
2021/11/04 06:03:29;;;;;;;94.68;36.45;;;;;;;5.04;99.08;100214.69;4982912;28;20047;-78
2021/11/04 06:05:55;;;;;;;109.65;38.95;;;;;;;5.12;98.86;100216.59;4984982;28;20092;-78
2021/11/04 06:08:20;;;;;;;106.13;38.72;;;;;;;5.16;98.61;100218.78;4971350;28;20092;-79
2021/11/04 06:10:46;;;;;;;98.40;36.40;;;;;;;5.07;98.46;100219.56;4981752;28;20046;-80
2021/11/04 06:13:11;;;;;;;102.00;36.17;;;;;;;5.08;98.09;100218.63;4983040;28;20087;-77
2021/11/04 06:15:37;;;;;;;107.60;38.70;;;;;;;5.07;98.47;100227.28;4973476;28;20350;-79
2021/11/04 06:18:03;;;;;;;109.38;37.45;;;;;;;5.05;98.17;100226.59;5013943;28;20038;-77
2021/11/04 06:20:29;;;;;;;101.63;36.65;;;;;;;5.11;98.23;100230.41;4998089;28;20039;-77
2021/11/04 06:22:55;;;;;;;106.78;36.35;;;;;;;5.14;98.63;100230.94;4983196;28;20042;-80
2021/11/04 06:25:21;;;;;;;97.70;34.70;;;;;;;5.09;98.61;100227.97;4980959;28;20041;-77
2021/11/04 06:27:46;;;;;;;100.88;36.75;;;;;;;5.10;98.53;100228.75;4968516;28;20088;-79
2021/11/04 06:30:12;;;;;;;96.68;35.60;;;;;;;5.11;98.33;100226.06;4967281;28;20046;-77
2021/11/04 06:32:38;;;;;;;111.25;36.85;;;;;;;5.16;98.63;100223.91;4978248;28;20035;-79
2021/11/04 06:35:05;;;;;;;103.85;34.47;;;;;;;5.06;98.57;100230.78;4977228;28;20460;-77
2021/11/04 06:37:31;;;;;;;101.65;34.67;;;;;;;5.04;98.63;100222.41;4976525;28;20034;-77
2021/11/04 06:39:57;;;;;;;106.22;36.55;;;;;;;5.02;98.89;100224.28;4966098;28;20053;-77
2021/11/04 06:42:22;;;;;;;118.20;37.63;;;;;;;5.10;98.67;100219.28;4976141;28;20034;-78
2021/11/04 06:44:48;;;;;;;106.53;37.25;;;;;;;5.16;98.76;100218.78;4976204;28;20530;-79
2021/11/04 06:47:23;;;;;;;109.10;37.83;;;;;;;5.15;98.38;100219.69;4984604;28;20042;-77
2021/11/04 06:49:52;;;;;;;108.65;37.60;;;;;;;5.19;98.50;100220.25;4980989;28;20253;-78
2021/11/04 06:52:36;;;;;;;114.05;38.70;;;;;;;5.21;98.15;100226.06;4985809;28;20037;-78
2021/11/04 06:55:04;;;;;;;115.78;38.83;;;;;;;5.19;97.90;100228.75;4986487;28;20030;-80
2021/11/04 06:57:34;;;;;;;117.22;38.30;;;;;;;5.23;97.91;100230.13;4994581;28;20046;-77
2021/11/04 07:00:03;;;;;;;107.57;38.25;;;;;;;5.15;98.19;100235.13;4980682;28;20034;-77
2021/11/04 07:02:35;;;;;;;107.90;38.95;;;;;;;5.23;98.32;100230.13;4980914;28;20050;-78
2021/11/04 07:05:03;;;;;;;114.80;40.60;;;;;;;5.23;98.09;100234.44;4973455;28;20142;-77
2021/11/04 07:07:32;;;;;;;118.45;39.53;;;;;;;5.24;97.50;100238.66;4982113;28;20046;-78
2021/11/04 07:10:00;;;;;;;127.32;40.83;;;;;;;5.17;98.08;100235.81;4986054;28;20133;-77
2021/11/04 07:12:26;;;;;;;117.85;40.30;;;;;;;5.15;97.53;100235.13;4958996;28;20122;-77
2021/11/04 07:14:51;;;;;;;112.30;36.92;;;;;;;5.11;97.32;100236.34;4997657;28;20133;-76
2021/11/04 07:17:17;;;;;;;112.50;35.60;;;;;;;5.06;97.66;100239.31;4982507;28;20073;-80
2021/11/04 07:19:46;;;;;;;103.63;35.42;;;;;;;5.15;97.66;100234.31;4985808;28;20050;-78
2021/11/04 07:22:23;;;;;;;95.40;34.25;;;;;;;5.09;97.64;100238.25;4978982;28;20057;-76
2021/11/04 07:25:03;;;;;;;91.97;32.78;;;;;;;5.00;97.40;100239.84;4981902;28;20065;-78
2021/11/04 07:27:37;;;;;;;102.13;34.55;;;;;;;5.05;97.76;100245.41;4978796;28;20031;-77
2021/11/04 07:30:14;;;;;;;102.00;35.45;;;;;;;5.02;97.94;100244.84;4975238;28;20062;-78
2021/11/04 07:32:47;;;;;;;105.40;35.58;;;;;;;5.04;98.35;100250.66;4985062;28;20035;-77
2021/11/04 07:35:17;;;;;;;105.60;35.72;;;;;;;5.10;98.27;100255.28;4972970;28;20418;-76
2021/11/04 07:37:43;;;;;;;98.03;33.97;;;;;;;5.16;97.58;100253.91;4990593;28;20499;-79
2021/11/04 07:40:10;;;;;;;97.93;34.60;;;;;;;5.20;97.46;100253.53;4982192;28;20677;-77
2021/11/04 07:42:36;;;;;;;97.70;35.17;;;;;;;5.19;97.18;100251.09;4986048;28;20045;-77
2021/11/04 07:45:03;;;;;;;88.03;31.92;;;;;;;5.17;97.28;100258.94;4986068;28;20039;-76
2021/11/04 07:47:28;;;;;;;86.63;32.15;;;;;;;5.15;96.89;100263.41;4984857;28;20040;-77
2021/11/04 07:49:54;;;;;;;92.00;33.40;;;;;;;5.20;97.24;100263.03;4981772;28;20454;-76
2021/11/04 07:52:19;;;;;;;96.30;32.88;;;;;;;5.20;97.28;100266.38;4985502;28;20047;-78
2021/11/04 07:54:45;;;;;;;97.78;34.25;;;;;;;5.31;97.19;100264.63;4981686;28;20073;-75
2021/11/04 07:57:10;;;;;;;92.25;32.20;;;;;;;5.24;96.52;100264.38;5014359;28;20035;-78
2021/11/04 07:59:36;;;;;;;98.38;33.50;;;;;;;5.25;97.09;100259.09;4978807;28;20031;-76
2021/11/04 08:02:01;;;;;;;90.20;31.77;;;;;;;5.21;96.97;100259.47;4968174;28;20492;-76
2021/11/04 08:04:28;;;;;;;99.38;33.33;;;;;;;5.21;97.12;100275.72;4981968;28;20030;-76
2021/11/04 08:06:53;;;;;;;98.20;32.72;;;;;;;5.29;97.42;100285.31;4983579;28;20113;-76
2021/11/04 08:09:19;;;;;;;92.85;31.50;;;;;;;5.22;97.32;100279.91;4978887;28;20058;-76
2021/11/04 08:11:45;;;;;;;86.82;31.58;;;;;;;5.35;97.70;100284.81;4978259;28;20117;-78
2021/11/04 08:14:11;;;;;;;98.07;33.17;;;;;;;5.29;97.52;100295.59;4979728;28;20050;-76
2021/11/04 08:16:36;;;;;;;83.88;30.40;;;;;;;5.29;97.56;100305.09;4993328;28;20032;-77
2021/11/04 08:19:02;;;;;;;92.70;33.85;;;;;;;5.47;97.76;100296.56;5000164;28;20514;-76
2021/11/04 08:21:27;;;;;;;88.93;31.05;;;;;;;5.43;97.50;100304.69;4973256;28;20038;-77
2021/11/04 08:23:53;;;;;;;81.10;29.67;;;;;;;5.45;97.25;100313.09;4984041;28;20395;-77
2021/11/04 08:26:18;;;;;;;85.00;32.17;;;;;;;5.45;97.19;100310.53;4985099;28;20031;-78
2021/11/04 08:28:44;;;;;;;84.60;30.63;;;;;;;5.52;97.77;100324.47;4983867;28;20042;-76
2021/11/04 08:31:09;;;;;;;78.22;31.02;;;;;;;5.51;97.42;100322.84;4978291;28;20038;-76
2021/11/04 08:33:35;;;;;;;79.43;31.80;;;;;;;5.59;97.09;100322.97;4982692;28;20399;-76
2021/11/04 08:36:00;;;;;;;91.20;33.50;;;;;;;5.56;97.24;100332.72;4983123;28;20064;-76
2021/11/04 08:38:26;;;;;;;86.50;33.60;;;;;;;5.55;97.30;100339.63;4966927;28;20049;-77
2021/11/04 08:40:51;;;;;;;83.43;31.63;;;;;;;5.53;97.39;100341.50;4976006;28;20035;-78
2021/11/04 08:43:17;;;;;;;81.95;31.70;;;;;;;5.53;97.46;100335.56;4985365;28;20167;-76
2021/11/04 08:45:43;;;;;;;86.43;33.50;;;;;;;5.59;96.87;100332.44;5001590;28;20135;-77
2021/11/04 08:48:09;;;;;;;85.88;33.75;;;;;;;5.59;97.33;100337.59;5012456;28;20045;-76
2021/11/04 08:50:34;;;;;;;82.22;32.03;;;;;;;5.71;96.66;100338.25;4978740;28;20462;-77
2021/11/04 08:53:00;;;;;;;81.20;32.55;;;;;;;5.65;96.86;100335.31;4976544;28;20519;-76
2021/11/04 08:55:25;;;;;;;83.43;33.50;;;;;;;5.65;96.58;100335.31;4977884;28;20526;-77
2021/11/04 08:57:51;;;;;;;91.47;37.55;;;;;;;5.74;95.86;100340.56;4976178;28;20046;-76
2021/11/04 09:00:17;;;;;;;108.55;43.72;;;;;;;5.67;96.19;100342.91;4981824;28;20022;-76
2021/11/04 09:02:43;;;;;;;108.80;40.95;;;;;;;5.68;96.34;100349.66;4977859;28;20105;-76
2021/11/04 09:05:09;;;;;;;106.57;40.67;;;;;;;5.71;96.04;100351.97;4974094;28;20545;-77
2021/11/04 09:07:39;;;;;;;101.25;39.83;;;;;;;5.69;96.37;100347.88;4986369;28;20032;-75
2021/11/04 09:10:07;;;;;;;100.90;41.10;;;;;;;5.62;96.21;100357.91;4976063;28;20038;-77
2021/11/04 09:12:34;;;;;;;110.18;42.92;;;;;;;5.61;96.49;100357.09;4960745;28;20038;-76
2021/11/04 09:15:00;;;;;;;120.22;44.42;;;;;;;5.70;96.13;100355.47;4982089;28;20042;-75
2021/11/04 09:17:26;;;;;;;109.25;41.58;;;;;;;5.66;96.08;100360.06;4974579;28;20045;-77
2021/11/04 09:19:51;;;;;;;98.70;39.72;;;;;;;5.65;95.98;100361.03;4979373;28;20026;-76
2021/11/04 09:22:20;;;;;;;106.10;42.63;;;;;;;5.81;95.70;100362.25;4983448;28;20046;-77
2021/11/04 09:24:46;;;;;;;94.15;38.38;;;;;;;5.76;95.51;100360.06;4987729;28;20545;-79
2021/11/04 09:27:13;;;;;;;99.30;41.22;;;;;;;5.77;95.20;100371.19;4986180;28;20060;-76
2021/11/04 09:29:39;;;;;;;101.03;41.90;;;;;;;5.71;95.62;100364.00;5003225;28;20493;-77
2021/11/04 09:32:06;;;;;;;99.43;39.13;;;;;;;5.70;96.29;100370.09;4980700;28;20081;-77
2021/11/04 09:34:33;;;;;;;98.70;40.08;;;;;;;5.84;96.27;100365.38;4985854;28;20030;-76
2021/11/04 09:36:59;;;;;;;95.72;39.20;;;;;;;5.89;96.25;100367.53;4987104;28;20099;-77
2021/11/04 09:39:24;;;;;;;106.50;42.40;;;;;;;5.94;96.37;100373.09;4983021;28;20456;-77
2021/11/04 09:41:51;;;;;;;91.72;37.80;;;;;;;6.05;96.56;100372.16;4976972;28;20061;-82
2021/11/04 09:44:18;;;;;;;91.75;38.45;;;;;;;6.22;96.70;100365.50;4983726;28;20038;-76
2021/11/04 09:46:44;;;;;;;90.90;38.78;;;;;;;6.30;96.37;100373.34;4977964;28;20030;-76
2021/11/04 09:49:09;;;;;;;88.93;38.10;;;;;;;6.42;95.72;100372.25;4970937;28;20046;-76
2021/11/04 09:51:36;;;;;;;88.03;38.15;;;;;;;6.38;96.15;100370.88;4973600;28;20038;-76
2021/11/04 09:54:03;;;;;;;95.88;38.55;;;;;;;6.40;96.09;100378.47;4984578;28;20120;-78
2021/11/04 09:56:30;;;;;;;86.30;39.05;;;;;;;6.49;95.81;100379.41;4980386;28;20070;-78
2021/11/04 09:58:57;;;;;;;95.85;38.05;;;;;;;6.45;95.98;100386.59;4967327;28;20537;-82
2021/11/04 10:01:28;;;;;;;97.75;40.22;;;;;;;6.39;96.57;100389.75;4970853;28;20475;-81
2021/11/04 10:03:56;;;;;;;94.20;38.95;;;;;;;6.56;96.42;100393.38;4987687;28;20045;-82
2021/11/04 10:06:24;;;;;;;99.25;39.80;;;;;;;6.58;96.17;100396.59;4987393;28;20027;-80
2021/11/04 10:08:59;;;;;;;97.78;40.17;;;;;;;6.63;96.23;100399.59;4968562;28;20038;-82
2021/11/04 10:11:36;;;;;;;97.28;41.28;;;;;;;6.61;95.65;100402.28;4966843;28;20027;-81
2021/11/04 10:14:15;;;;;;;98.03;39.47;;;;;;;6.67;94.66;100405.25;4982682;28;20031;-79
2021/11/04 10:16:44;;;;;;;101.10;40.97;;;;;;;6.50;95.13;100405.03;4981329;28;20027;-80
2021/11/04 10:19:15;;;;;;;103.25;41.05;;;;;;;6.49;95.69;100410.31;4970349;28;20125;-80
2021/11/04 10:21:43;;;;;;;94.20;41.10;;;;;;;6.53;96.26;100409.88;4987404;28;20034;-79
2021/11/04 10:24:46;;;;;;;92.68;39.95;;;;;;;6.49;96.68;100413.69;4986944;28;20034;-80
2021/11/04 10:27:31;;;;;;;104.70;43.28;;;;;;;6.51;96.93;100422.09;4971991;28;20058;-79
2021/11/04 10:29:57;;;;;;;98.25;40.33;;;;;;;6.52;97.36;100423.75;4983986;28;20052;-81
2021/11/04 10:32:32;;;;;;;107.18;42.25;;;;;;;6.64;97.23;100421.81;4984645;28;20338;-81
2021/11/04 10:35:09;;;;;;;105.70;43.88;;;;;;;6.74;97.03;100420.03;4961567;28;20030;-80
2021/11/04 10:37:44;;;;;;;113.30;43.30;;;;;;;6.75;96.75;100419.06;4982446;28;20030;-79
2021/11/04 10:40:17;;;;;;;101.03;40.60;;;;;;;6.83;96.17;100420.94;4980148;28;20084;-80
2021/11/04 10:42:53;;;;;;;105.82;42.22;;;;;;;6.80;96.55;100421.25;4983596;28;20038;-81
2021/11/04 10:45:21;;;;;;;109.00;43.50;;;;;;;6.93;96.25;100426.88;4966736;28;20043;-79
2021/11/04 10:47:46;;;;;;;109.07;45.20;;;;;;;6.91;96.39;100421.06;4990226;28;20046;-79
2021/11/04 10:50:12;;;;;;;109.97;46.15;;;;;;;6.98;96.74;100418.72;4990516;28;20026;-78
2021/11/04 10:52:38;;;;;;;102.20;42.78;;;;;;;7.09;96.68;100423.69;4986091;28;20092;-78
2021/11/04 10:55:10;;;;;;;120.90;48.13;;;;;;;7.15;96.61;100424.88;4988038;28;20391;-77
2021/11/04 10:57:41;;;;;;;114.05;48.28;;;;;;;7.08;96.13;100419.47;4982237;28;20045;-77
2021/11/04 11:00:21;;;;;;;113.40;48.75;;;;;;;7.07;95.88;100419.66;4992786;28;20053;-78
2021/11/04 11:02:58;;;;;;;112.85;48.03;;;;;;;7.22;95.92;100419.00;4982491;28;20046;-78
2021/11/04 11:05:32;;;;;;;109.32;46.78;;;;;;;7.30;95.09;100413.13;4984997;28;20034;-77
2021/11/04 11:07:58;;;;;;;115.32;49.22;;;;;;;7.33;94.78;100410.28;4985474;28;20651;-77
2021/11/04 11:10:24;;;;;;;126.07;51.53;;;;;;;7.34;94.95;100417.03;5010371;28;20156;-77
2021/11/04 11:12:49;;;;;;;119.47;50.30;;;;;;;7.38;95.06;100404.69;4990062;28;20073;-79